Time;durP1;ratioP1;P1;durP2;ratioP2;P2;SDS_P1;SDS_P2;PMS_P1;PMS_P2;Temp;Humidity;BMP_temperature;BMP_pressure;BME280_temperature;BME280_humidity;BME280_pressure;Samples;Min_cycle;Max_cycle;Signal;HPM_P1;HPM_P2
2023/08/20 00:01:41;;;;;;;19.00;13.02;;;;;;;20.55;100.00;99987.31;5139138;28;20059;-56
2023/08/20 00:04:08;;;;;;;15.23;12.40;;;;;;;20.50;100.00;99982.97;5139497;28;20473;-55
2023/08/20 00:06:35;;;;;;;22.95;13.55;;;;;;;20.51;100.00;99981.78;5139116;28;20089;-57
2023/08/20 00:09:03;;;;;;;24.05;13.68;;;;;;;20.51;100.00;99983.78;5139417;27;20051;-58
2023/08/20 00:11:29;;;;;;;29.75;13.48;;;;;;;20.46;100.00;99976.63;5138959;28;20055;-61
2023/08/20 00:13:55;;;;;;;19.08;12.30;;;;;;;20.41;100.00;99977.06;5138994;28;20108;-59
2023/08/20 00:16:21;;;;;;;21.25;13.40;;;;;;;20.41;100.00;99969.50;5139161;28;20134;-58
2023/08/20 00:18:48;;;;;;;20.48;11.50;;;;;;;20.41;100.00;99966.72;5139042;28;20142;-61
2023/08/20 00:21:14;;;;;;;26.48;12.80;;;;;;;20.36;100.00;99961.59;5137831;27;20436;-61
2023/08/20 00:23:41;;;;;;;27.67;13.70;;;;;;;20.30;100.00;99968.03;5138934;28;20108;-55
2023/08/20 00:26:08;;;;;;;23.00;12.23;;;;;;;20.32;100.00;99973.97;5139067;28;20112;-59
2023/08/20 00:28:36;;;;;;;24.50;12.75;;;;;;;20.28;100.00;99971.22;5138810;28;20043;-59
2023/08/20 00:31:02;;;;;;;18.77;15.52;;;;;;;20.21;100.00;99968.50;5138690;28;20077;-63
2023/08/20 00:33:28;;;;;;;16.85;12.23;;;;;;;20.26;100.00;99961.69;5138732;28;20141;-62
2023/08/20 00:35:54;;;;;;;14.20;11.57;;;;;;;20.19;100.00;99957.78;5138981;28;20305;-57
2023/08/20 00:38:20;;;;;;;20.88;13.15;;;;;;;20.18;100.00;99955.38;5138515;27;20054;-55
2023/08/20 00:40:46;;;;;;;21.95;12.52;;;;;;;20.18;100.00;99956.19;5138944;28;20051;-57
2023/08/20 00:43:12;;;;;;;22.30;12.60;;;;;;;20.14;100.00;99961.00;5138388;28;20058;-61
2023/08/20 00:45:41;;;;;;;17.30;13.05;;;;;;;20.11;100.00;99958.25;5138688;28;20139;-56
2023/08/20 00:48:07;;;;;;;21.05;12.52;;;;;;;20.07;100.00;99938.78;5138656;28;20107;-57
2023/08/20 00:50:34;;;;;;;19.95;12.63;;;;;;;20.00;100.00;99940.84;5138504;28;20145;-57
2023/08/20 00:53:00;;;;;;;19.48;12.65;;;;;;;20.08;100.00;99939.56;5138397;28;20070;-55
2023/08/20 00:55:27;;;;;;;17.83;15.82;;;;;;;20.06;100.00;99941.97;5138267;28;20143;-62
2023/08/20 00:57:53;;;;;;;20.52;13.00;;;;;;;19.98;100.00;99939.25;5138571;28;20055;-62
2023/08/20 01:00:23;;;;;;;16.83;12.20;;;;;;;20.03;100.00;99931.69;5138189;28;20055;-58
2023/08/20 01:02:49;;;;;;;19.58;17.05;;;;;;;20.02;100.00;99924.50;5138521;28;20074;-62
2023/08/20 01:05:16;;;;;;;17.45;12.50;;;;;;;19.99;100.00;99926.13;5138048;28;20051;-64
2023/08/20 01:07:58;;;;;;;19.63;12.73;;;;;;;19.92;100.00;99926.97;5138519;27;20043;-58
2023/08/20 01:10:30;;;;;;;23.75;13.75;;;;;;;19.88;100.00;99911.50;5138009;28;20105;-59
2023/08/20 01:12:56;;;;;;;21.77;13.63;;;;;;;19.86;100.00;99900.81;5137967;28;20451;-56
2023/08/20 01:15:23;;;;;;;19.27;13.77;;;;;;;19.87;100.00;99907.94;5138249;28;20053;-60
2023/08/20 01:17:49;;;;;;;17.65;15.85;;;;;;;19.86;100.00;99902.78;5138064;28;20133;-58
2023/08/20 01:20:16;;;;;;;20.73;14.40;;;;;;;19.81;100.00;99906.00;5138173;28;20298;-57
2023/08/20 01:23:00;;;;;;;19.13;16.17;;;;;;;19.82;100.00;99913.16;5138078;28;20051;-63
2023/08/20 01:25:41;;;;;;;15.38;11.95;;;;;;;19.93;100.00;99925.00;5138320;28;20078;-61
2023/08/20 01:28:19;;;;;;;18.58;12.82;;;;;;;19.77;100.00;99916.38;5137744;28;20306;-60
2023/08/20 01:30:46;;;;;;;17.75;15.93;;;;;;;19.76;100.00;99918.38;5137673;28;20051;-59
2023/08/20 01:33:13;;;;;;;21.77;13.05;;;;;;;19.79;100.00;99917.53;5137622;27;20078;-61
2023/08/20 01:35:39;;;;;;;20.05;12.45;;;;;;;19.71;100.00;99924.34;5137807;28;20134;-61
2023/08/20 01:38:05;;;;;;;18.83;12.48;;;;;;;19.68;100.00;99928.75;5137670;27;20439;-61
2023/08/20 01:40:31;;;;;;;18.95;16.35;;;;;;;19.66;100.00;99911.69;5137600;28;20105;-63
2023/08/20 01:42:57;;;;;;;19.75;15.88;;;;;;;19.64;100.00;99916.06;5137774;28;20461;-56
2023/08/20 01:45:24;;;;;;;21.55;12.65;;;;;;;19.69;100.00;99913.66;5137455;28;20433;-62
2023/08/20 01:47:50;;;;;;;19.88;17.15;;;;;;;19.63;100.00;99903.34;5137857;28;20047;-59
2023/08/20 01:50:16;;;;;;;21.40;13.57;;;;;;;19.62;100.00;99902.53;5137590;28;20057;-59
2023/08/20 01:52:42;;;;;;;16.20;11.93;;;;;;;19.71;100.00;99899.31;5137906;28;20051;-62
2023/08/20 01:55:08;;;;;;;23.35;12.77;;;;;;;19.66;100.00;99908.09;5137327;28;20427;-58
2023/08/20 01:57:34;;;;;;;21.27;12.35;;;;;;;19.63;100.00;99906.94;5137793;28;20093;-59
2023/08/20 02:00:00;;;;;;;20.45;12.63;;;;;;;19.67;100.00;99902.13;5137520;28;20051;-61
2023/08/20 02:02:27;;;;;;;20.52;12.27;;;;;;;19.71;100.00;99907.66;5137208;28;20195;-59
2023/08/20 02:04:53;;;;;;;19.80;13.55;;;;;;;19.68;100.00;99911.25;5137584;28;20357;-62
2023/08/20 02:07:18;;;;;;;21.63;13.13;;;;;;;19.60;100.00;99912.50;5137274;27;20073;-58
2023/08/20 02:09:44;;;;;;;19.55;16.05;;;;;;;19.55;100.00;99922.03;5137516;28;20058;-56
2023/08/20 02:12:10;;;;;;;21.40;13.15;;;;;;;19.57;100.00;99910.53;5137113;28;20395;-56
2023/08/20 02:14:36;;;;;;;26.50;13.57;;;;;;;19.50;100.00;99917.72;5137654;28;20051;-56
2023/08/20 02:17:02;;;;;;;23.85;13.18;;;;;;;19.50;100.00;99906.59;5137145;28;20141;-60
2023/08/20 02:19:29;;;;;;;20.73;13.65;;;;;;;19.56;100.00;99904.19;5137686;28;20078;-60
2023/08/20 02:21:55;;;;;;;18.58;12.70;;;;;;;19.54;100.00;99906.56;5136952;28;20065;-58
2023/08/20 02:24:21;;;;;;;20.80;13.30;;;;;;;19.54;100.00;99906.56;5137442;28;20051;-54
2023/08/20 02:26:47;;;;;;;22.00;13.43;;;;;;;19.41;100.00;99908.25;5136881;28;20051;-55
2023/08/20 02:29:13;;;;;;;23.63;12.52;;;;;;;19.48;100.00;99899.84;5136842;28;20051;-56
2023/08/20 02:31:39;;;;;;;20.50;13.07;;;;;;;19.42;100.00;99887.56;5137213;28;20092;-59
2023/08/20 02:34:05;;;;;;;21.85;13.93;;;;;;;19.44;100.00;99888.75;5137027;28;20335;-61
2023/08/20 02:36:31;;;;;;;22.60;13.63;;;;;;;19.35;100.00;99893.19;5137171;28;20433;-62
2023/08/20 02:38:57;;;;;;;21.70;13.25;;;;;;;19.47;100.00;99901.06;5136912;27;20332;-59
2023/08/20 02:41:23;;;;;;;25.50;13.90;;;;;;;19.39;100.00;99902.28;5136824;28;20055;-60
2023/08/20 02:43:49;;;;;;;20.48;13.48;;;;;;;19.43;100.00;99895.53;5137018;27;20134;-61
2023/08/20 02:46:15;;;;;;;21.95;13.98;;;;;;;19.43;100.00;99889.19;5140655;28;20396;-60
2023/08/20 02:48:41;;;;;;;22.75;13.23;;;;;;;19.44;100.00;99885.97;5140311;28;20142;-58
2023/08/20 02:51:07;;;;;;;21.35;17.25;;;;;;;19.43;100.00;99886.41;5140928;28;20108;-55
2023/08/20 02:53:33;;;;;;;19.38;13.50;;;;;;;19.43;100.00;99883.63;5140182;28;20072;-56
2023/08/20 02:55:59;;;;;;;27.08;13.68;;;;;;;19.46;100.00;99883.59;5140682;28;20043;-61
2023/08/20 02:58:25;;;;;;;19.20;12.60;;;;;;;19.45;100.00;99895.09;5140424;28;20154;-58
2023/08/20 03:00:51;;;;;;;21.50;12.95;;;;;;;19.45;100.00;99895.09;5140250;28;20107;-56
2023/08/20 03:03:17;;;;;;;21.48;14.00;;;;;;;19.32;100.00;99889.22;5140335;28;20146;-58
2023/08/20 03:05:43;;;;;;;19.85;16.60;;;;;;;19.36;100.00;99883.63;5140207;28;20137;-58
2023/08/20 03:08:09;;;;;;;20.50;13.55;;;;;;;19.25;100.00;99875.38;5140275;27;20051;-59
2023/08/20 03:10:36;;;;;;;22.17;12.60;;;;;;;19.41;100.00;99883.22;5140039;28;20397;-61
2023/08/20 03:13:02;;;;;;;22.30;13.60;;;;;;;19.44;100.00;99885.97;5140131;28;20130;-62
2023/08/20 03:15:29;;;;;;;17.40;13.80;;;;;;;19.56;100.00;99893.06;5139832;28;20392;-59
2023/08/20 03:17:55;;;;;;;19.27;12.30;;;;;;;19.53;100.00;99907.78;5140633;28;20051;-59
2023/08/20 03:20:21;;;;;;;20.05;13.23;;;;;;;19.56;100.00;99908.94;5139677;28;20047;-55
2023/08/20 03:22:47;;;;;;;18.67;12.90;;;;;;;19.57;100.00;99914.09;5140219;28;20057;-61
2023/08/20 03:25:13;;;;;;;18.95;13.23;;;;;;;19.66;100.00;99924.78;5139748;28;20142;-56
2023/08/20 03:27:40;;;;;;;20.92;13.45;;;;;;;19.64;100.00;99925.19;5139972;28;20473;-54
2023/08/20 03:30:07;;;;;;;18.35;13.10;;;;;;;19.68;100.00;99920.41;5139678;28;20458;-55
2023/08/20 03:32:33;;;;;;;26.20;14.25;;;;;;;19.75;100.00;99928.69;5139599;28;20068;-59
2023/08/20 03:34:59;;;;;;;18.08;16.17;;;;;;;19.82;100.00;99921.50;5139747;28;20051;-57
2023/08/20 03:37:25;;;;;;;19.77;13.32;;;;;;;20.14;100.00;99927.59;5139716;27;20043;-53
2023/08/20 03:39:52;;;;;;;24.77;13.60;;;;;;;20.43;100.00;99942.03;5139875;28;20336;-55
2023/08/20 03:42:18;;;;;;;16.15;12.38;;;;;;;20.76;100.00;99922.22;5139540;28;20108;-57
2023/08/20 03:44:45;;;;;;;23.20;12.65;;;;;;;21.07;100.00;99861.72;5139862;28;20058;-62
2023/08/20 03:47:11;;;;;;;21.85;12.65;;;;;;;21.33;100.00;99762.53;5139358;28;20142;-63
2023/08/20 03:49:37;;;;;;;22.13;12.75;;;;;;;21.59;100.00;99641.75;5139809;28;20107;-62
2023/08/20 03:52:06;;;;;;;17.50;12.30;;;;;;;21.82;100.00;99546.00;5139279;28;20146;-61
2023/08/20 03:54:32;;;;;;;16.58;14.55;;;;;;;22.13;100.00;99403.31;5139875;28;20282;-56
2023/08/20 03:56:58;;;;;;;19.55;11.80;;;;;;;22.10;100.00;99253.44;5139342;28;20298;-59
2023/08/20 03:59:24;;;;;;;17.88;14.35;;;;;;;22.34;100.00;99214.09;5139299;28;20203;-58
2023/08/20 04:01:51;;;;;;;18.08;12.30;;;;;;;22.51;100.00;99079.47;5139432;28;20112;-59
2023/08/20 04:04:17;;;;;;;19.27;11.63;;;;;;;22.79;100.00;98949.22;5139297;28;20472;-58
2023/08/20 04:06:43;;;;;;;14.43;11.57;;;;;;;23.09;100.00;98843.53;5139273;28;20145;-56
2023/08/20 04:09:09;;;;;;;19.80;12.07;;;;;;;23.29;100.00;98786.44;5139090;27;20130;-56
2023/08/20 04:11:35;;;;;;;15.52;11.57;;;;;;;23.43;100.00;98724.34;5139266;28;20051;-56
2023/08/20 04:14:01;;;;;;;18.08;12.43;;;;;;;23.63;100.00;98631.56;5139289;28;20051;-54
2023/08/20 04:16:29;;;;;;;16.67;11.93;;;;;;;23.92;100.00;98567.47;5139367;28;20362;-63
2023/08/20 04:18:56;;;;;;;15.68;10.55;;;;;;;24.11;100.00;98508.66;5138828;28;20437;-57
2023/08/20 04:21:22;;;;;;;23.13;11.27;;;;;;;24.38;100.00;98455.28;5139294;28;20114;-55
2023/08/20 04:23:48;;;;;;;17.92;11.00;;;;;;;24.58;100.00;98437.13;5138733;28;20397;-54
2023/08/20 04:26:13;;;;;;;16.13;11.30;;;;;;;24.92;100.00;98409.78;5138935;28;20056;-60
2023/08/20 04:28:39;;;;;;;18.15;10.50;;;;;;;25.13;100.00;98410.72;5138995;28;20051;-62
2023/08/20 04:31:05;;;;;;;17.13;10.30;;;;;;;25.20;100.00;98404.72;5138795;28;20085;-63
2023/08/20 04:33:31;;;;;;;16.25;12.63;;;;;;;25.25;100.00;98407.59;5138728;28;20047;-63
2023/08/20 04:35:58;;;;;;;14.38;11.45;;;;;;;25.42;100.00;98398.72;5138488;28;20047;-62
2023/08/20 04:38:24;;;;;;;15.07;12.52;;;;;;;25.68;100.00;98401.69;5138915;27;20332;-62
2023/08/20 04:40:50;;;;;;;12.88;11.32;;;;;;;25.95;100.00;98406.22;5138885;28;20058;-61
2023/08/20 04:43:16;;;;;;;14.70;10.35;;;;;;;25.89;100.00;98413.78;5138906;28;20428;-60
2023/08/20 04:45:42;;;;;;;12.50;10.23;;;;;;;25.77;100.00;98398.78;5138490;28;20169;-58
2023/08/20 04:48:08;;;;;;;14.55;10.25;;;;;;;26.03;100.00;98407.38;5138829;28;20137;-62
2023/08/20 04:50:34;;;;;;;13.35;11.63;;;;;;;26.17;100.00;98409.34;5138454;28;20093;-57
2023/08/20 04:53:00;;;;;;;14.43;11.40;;;;;;;26.51;100.00;98433.06;5138755;28;20047;-59
2023/08/20 04:55:26;;;;;;;18.05;12.05;;;;;;;26.65;100.00;98458.78;5138590;28;20127;-55
2023/08/20 04:57:52;;;;;;;21.98;10.85;;;;;;;26.70;100.00;98432.78;5138172;28;20417;-58
2023/08/20 05:00:18;;;;;;;18.75;9.90;;;;;;;26.66;100.00;98449.88;5138421;28;20115;-59
2023/08/20 05:02:44;;;;;;;13.52;9.75;;;;;;;26.92;100.00;98452.72;5138333;28;20200;-64
2023/08/20 05:05:11;;;;;;;14.35;11.10;;;;;;;26.92;100.00;98461.16;5138516;28;20070;-63
2023/08/20 05:07:37;;;;;;;11.82;10.63;;;;;;;27.21;100.00;98482.75;5137376;27;20055;-61
2023/08/20 05:10:04;;;;;;;17.00;11.45;;;;;;;27.45;100.00;98492.97;5137988;28;20091;-62
2023/08/20 05:12:30;;;;;;;12.35;10.93;;;;;;;27.40;100.00;98479.63;5138153;28;20047;-63
2023/08/20 05:14:56;;;;;;;14.00;11.90;;;;;;;27.46;100.00;98474.81;5138607;28;20133;-62
2023/08/20 05:17:22;;;;;;;13.40;11.25;;;;;;;27.26;100.00;98455.94;5138246;28;20328;-63
2023/08/20 05:19:48;;;;;;;15.13;11.70;;;;;;;27.07;100.00;98432.94;5138371;28;20137;-56
2023/08/20 05:22:14;;;;;;;14.98;11.68;;;;;;;27.12;100.00;98420.97;5137765;28;20069;-56
2023/08/20 05:24:40;;;;;;;14.43;12.77;;;;;;;27.21;100.00;98431.31;5137824;28;20051;-59
2023/08/20 05:27:14;;;;;;;16.40;12.80;;;;;;;27.37;100.00;98429.94;5138264;28;20146;-61
2023/08/20 05:29:40;;;;;;;15.30;12.32;;;;;;;27.58;100.00;98451.13;5137950;28;20057;-62
2023/08/20 05:32:06;;;;;;;15.45;11.90;;;;;;;27.68;100.00;98448.91;5138021;28;20078;-59
2023/08/20 05:34:33;;;;;;;15.70;11.50;;;;;;;28.14;100.00;98512.81;5137824;28;20074;-58
2023/08/20 05:36:59;;;;;;;13.60;12.27;;;;;;;28.48;100.00;98648.38;5138309;28;20142;-58
2023/08/20 05:39:25;;;;;;;20.70;12.48;;;;;;;28.83;100.00;98687.63;5137507;27;20058;-59
2023/08/20 05:41:51;;;;;;;16.33;11.02;;;;;;;29.05;100.00;98631.38;5137891;28;20086;-63
2023/08/20 05:44:18;;;;;;;17.45;11.63;;;;;;;29.40;100.00;98709.31;5137429;28;20129;-59
2023/08/20 05:46:44;;;;;;;18.05;11.48;;;;;;;29.38;100.00;98779.63;5137758;28;20047;-62
2023/08/20 05:49:10;;;;;;;17.95;10.55;;;;;;;29.40;100.00;98720.63;5137366;28;20062;-59
2023/08/20 05:51:36;;;;;;;15.73;10.52;;;;;;;29.60;100.00;98693.53;5137860;28;20417;-57
2023/08/20 05:54:02;;;;;;;13.90;10.30;;;;;;;30.07;100.00;98843.75;5137534;28;20062;-59
2023/08/20 05:56:28;;;;;;;12.35;9.20;;;;;;;30.14;100.00;98846.84;5137297;28;20233;-60
2023/08/20 05:58:54;;;;;;;14.38;9.75;;;;;;;30.60;100.00;98878.94;5137536;28;20154;-63
2023/08/20 06:01:21;;;;;;;12.32;9.15;;;;;;;30.86;100.00;98916.34;5137287;28;20101;-64
2023/08/20 06:03:47;;;;;;;12.57;9.10;;;;;;;31.13;100.00;98987.69;5137466;28;20133;-62
2023/08/20 06:06:13;;;;;;;10.48;8.48;;;;;;;31.13;100.00;98999.03;5137074;28;20329;-63
2023/08/20 06:08:38;;;;;;;13.93;8.35;;;;;;;31.33;100.00;98981.84;5137753;27;20129;-62
2023/08/20 06:11:04;;;;;;;10.32;8.68;;;;;;;31.52;100.00;98995.50;5137137;28;20137;-61
2023/08/20 06:13:30;;;;;;;9.60;7.20;;;;;;;32.02;100.00;99031.63;5137419;28;20458;-57
2023/08/20 06:15:56;;;;;;;10.10;7.65;;;;;;;32.24;100.00;99039.34;5137143;28;20142;-58
2023/08/20 06:18:23;;;;;;;9.07;6.10;;;;;;;32.79;100.00;99103.78;5137536;27;20084;-55
2023/08/20 06:20:49;;;;;;;6.32;5.25;;;;;;;33.36;100.00;99149.06;5140147;28;20051;-58
2023/08/20 06:23:15;;;;;;;9.52;5.30;;;;;;;33.20;100.00;99157.13;5140913;28;20082;-57
2023/08/20 06:25:40;;;;;;;6.25;4.85;;;;;;;32.78;100.00;99144.78;5140903;28;20440;-56
2023/08/20 06:28:06;;;;;;;9.15;4.78;;;;;;;32.61;100.00;99146.13;5140555;28;20475;-56
2023/08/20 06:30:32;;;;;;;8.48;4.90;;;;;;;32.45;100.00;99107.94;5140671;28;20050;-59
2023/08/20 06:32:58;;;;;;;5.47;4.97;;;;;;;32.42;100.00;99123.13;5140515;28;20137;-61
2023/08/20 06:35:25;;;;;;;7.50;4.95;;;;;;;32.87;100.00;99137.31;5140863;28;20146;-61
2023/08/20 06:37:51;;;;;;;7.43;4.93;;;;;;;33.18;100.00;99136.97;5140505;27;20047;-59
2023/08/20 06:40:17;;;;;;;7.78;4.97;;;;;;;32.97;100.00;99138.59;5140727;28;20053;-61
2023/08/20 06:42:43;;;;;;;7.72;4.45;;;;;;;32.74;100.00;99147.13;5140455;28;20151;-60
2023/08/20 06:45:09;;;;;;;13.07;4.80;;;;;;;32.26;100.00;99134.00;5140952;28;20381;-60
2023/08/20 06:47:35;;;;;;;6.57;4.05;;;;;;;31.98;100.00;99138.84;5140405;28;20051;-59
2023/08/20 06:50:01;;;;;;;5.20;3.75;;;;;;;31.69;100.00;99128.72;5140754;28;20062;-54
2023/08/20 06:52:28;;;;;;;8.25;4.15;;;;;;;31.37;100.00;99115.50;5140392;28;20142;-62
2023/08/20 06:54:54;;;;;;;10.45;4.07;;;;;;;30.92;100.00;99089.81;5140126;28;20142;-60
2023/08/20 06:57:20;;;;;;;4.20;3.88;;;;;;;30.76;100.00;99084.81;5140312;28;20062;-63
2023/08/20 06:59:46;;;;;;;8.40;4.07;;;;;;;30.66;100.00;99064.41;5140000;28;20430;-58
2023/08/20 07:02:12;;;;;;;7.68;4.65;;;;;;;30.47;100.00;99054.78;5140183;28;20047;-58
2023/08/20 07:04:37;;;;;;;5.93;4.43;;;;;;;30.23;100.00;99015.56;5140119;28;20043;-55
2023/08/20 07:07:05;;;;;;;7.03;4.20;;;;;;;29.98;100.00;98975.50;5140146;28;20146;-54
2023/08/20 07:09:31;;;;;;;8.40;3.97;;;;;;;29.97;100.00;98976.00;5139861;27;20061;-62
2023/08/20 07:11:57;;;;;;;4.43;4.03;;;;;;;30.08;100.00;98997.94;5140159;28;20486;-60
2023/08/20 07:14:23;;;;;;;9.18;4.38;;;;;;;30.35;100.00;99031.28;5139693;28;20051;-63
2023/08/20 07:16:49;;;;;;;4.43;3.97;;;;;;;30.77;100.00;99060.13;5140266;28;20094;-62
2023/08/20 07:19:15;;;;;;;5.05;3.70;;;;;;;31.16;100.00;99074.47;5139845;28;20074;-62
2023/08/20 07:21:41;;;;;;;4.90;4.03;;;;;;;31.77;100.00;99073.88;5140168;28;20051;-60
2023/08/20 07:24:07;;;;;;;6.45;4.32;;;;;;;32.63;100.00;99110.25;5139959;28;20047;-59
2023/08/20 07:26:34;;;;;;;6.03;4.20;;;;;;;33.50;100.00;99133.78;5139387;28;20393;-58
2023/08/20 07:28:59;;;;;;;7.90;4.30;;;;;;;33.92;100.00;99165.84;5139699;28;20115;-62
2023/08/20 07:31:27;;;;;;;4.72;3.55;;;;;;;34.01;100.00;99179.00;5139284;27;20051;-63
2023/08/20 07:33:54;;;;;;;7.22;4.07;;;;;;;34.28;100.00;99168.72;5139762;28;20146;-59
2023/08/20 07:36:21;;;;;;;5.20;3.30;;;;;;;34.70;100.00;99173.06;5139647;28;20066;-63
2023/08/20 07:38:47;;;;;;;5.35;3.88;;;;;;;35.18;100.00;99182.19;5139883;27;20092;-57
2023/08/20 07:41:13;;;;;;;5.28;3.53;;;;;;;35.26;97.92;99181.06;5139238;28;20051;-61
2023/08/20 07:43:41;;;;;;;5.88;3.30;;;;;;;35.68;90.23;99190.13;5139692;28;20385;-63
2023/08/20 07:46:08;;;;;;;4.40;3.60;;;;;;;35.86;89.61;99190.72;5139373;28;20047;-64
2023/08/20 07:48:34;;;;;;;5.25;3.35;;;;;;;35.76;90.66;99187.47;5139766;28;20137;-57
2023/08/20 07:51:01;;;;;;;6.45;3.30;;;;;;;35.81;90.13;99189.47;5139575;28;20219;-58
2023/08/20 07:53:27;;;;;;;6.68;3.63;;;;;;;36.05;86.30;99192.25;5139477;28;20430;-62
2023/08/20 07:55:53;;;;;;;4.95;3.45;;;;;;;36.27;85.79;99176.09;5139540;28;20138;-62
2023/08/20 07:58:19;;;;;;;4.70;3.45;;;;;;;36.05;83.65;99185.78;5139362;28;20138;-59
2023/08/20 08:00:45;;;;;;;6.30;3.47;;;;;;;35.81;85.08;99187.38;5139451;28;20055;-57
2023/08/20 08:03:11;;;;;;;9.10;3.30;;;;;;;36.00;83.24;99187.38;5139282;28;20047;-60
2023/08/20 08:05:37;;;;;;;5.00;3.28;;;;;;;36.02;83.90;99181.94;5139396;28;20047;-59
2023/08/20 08:08:03;;;;;;;4.63;3.25;;;;;;;36.26;83.79;99186.75;5139035;27;20059;-58
2023/08/20 08:10:29;;;;;;;7.78;3.25;;;;;;;36.51;83.30;99178.06;5139495;28;20059;-59
2023/08/20 08:12:55;;;;;;;3.85;3.35;;;;;;;35.99;85.38;99179.34;5139009;28;20385;-58
2023/08/20 08:15:21;;;;;;;4.95;3.20;;;;;;;36.22;89.44;99177.75;5139351;28;20107;-58
2023/08/20 08:17:48;;;;;;;4.28;3.20;;;;;;;36.01;84.27;99174.66;5138803;28;20096;-57
2023/08/20 08:20:13;;;;;;;4.60;3.35;;;;;;;36.17;80.92;99177.81;5138921;28;20145;-57
2023/08/20 08:22:40;;;;;;;5.18;3.05;;;;;;;36.58;80.85;99176.66;5139054;28;20043;-55
2023/08/20 08:25:06;;;;;;;6.60;2.92;;;;;;;36.81;75.56;99180.66;5138825;28;20055;-60
2023/08/20 08:27:31;;;;;;;7.43;3.13;;;;;;;36.84;78.91;99178.81;5138816;28;20054;-63
2023/08/20 08:29:58;;;;;;;4.30;3.25;;;;;;;36.14;79.36;99168.25;5138841;28;20043;-63
2023/08/20 08:32:26;;;;;;;3.78;3.47;;;;;;;35.92;79.22;99169.31;5138996;28;20047;-58
2023/08/20 08:34:53;;;;;;;3.42;3.10;;;;;;;35.75;81.49;99161.00;5138614;28;20439;-61
2023/08/20 08:37:18;;;;;;;4.93;3.10;;;;;;;35.89;81.34;99164.72;5138904;27;20383;-58
2023/08/20 08:39:44;;;;;;;5.63;3.40;;;;;;;36.22;79.40;99162.69;5138609;28;20051;-57
2023/08/20 08:42:11;;;;;;;7.97;3.55;;;;;;;35.88;78.72;99166.00;5137740;27;20066;-60
2023/08/20 08:44:37;;;;;;;4.93;3.22;;;;;;;36.04;79.07;99153.63;5138455;28;20047;-58
2023/08/20 08:47:05;;;;;;;5.35;3.38;;;;;;;35.11;84.95;99146.50;5138949;28;20051;-56
2023/08/20 08:49:33;;;;;;;4.50;3.33;;;;;;;35.95;82.23;99156.81;5138562;28;20051;-56
2023/08/20 08:52:01;;;;;;;4.40;3.00;;;;;;;35.73;87.03;99151.47;5138584;28;20043;-58
2023/08/20 08:54:27;;;;;;;5.13;3.15;;;;;;;35.65;79.75;99144.81;5138569;28;20483;-63
2023/08/20 08:56:53;;;;;;;4.47;3.20;;;;;;;36.36;80.23;99147.16;5138454;28;20130;-58
2023/08/20 08:59:20;;;;;;;6.85;3.50;;;;;;;36.82;79.31;99150.78;5138309;28;20138;-62
2023/08/20 09:01:46;;;;;;;3.33;3.03;;;;;;;36.21;79.36;99156.19;5138201;28;20137;-57
2023/08/20 09:04:12;;;;;;;12.35;3.50;;;;;;;36.63;76.53;99155.81;5138541;28;20138;-58
2023/08/20 09:06:46;;;;;;;5.85;3.00;;;;;;;36.88;75.38;99151.44;5138124;28;20051;-61
2023/08/20 09:09:12;;;;;;;6.65;3.33;;;;;;;37.39;74.69;99154.09;5137904;27;20044;-63
2023/08/20 09:11:39;;;;;;;7.95;3.42;;;;;;;37.32;77.19;99154.00;5137937;28;20336;-63
2023/08/20 09:14:05;;;;;;;5.85;3.67;;;;;;;37.11;77.10;99159.63;5138374;28;20047;-63
2023/08/20 09:16:32;;;;;;;4.90;3.33;;;;;;;37.20;75.80;99162.81;5138168;28;20114;-60
2023/08/20 09:19:00;;;;;;;4.80;3.10;;;;;;;37.08;71.59;99160.72;5138067;28;20073;-61
2023/08/20 09:21:28;;;;;;;3.55;3.10;;;;;;;36.89;75.68;99153.00;5138102;28;20146;-58
2023/08/20 09:23:54;;;;;;;5.10;2.95;;;;;;;36.56;78.21;99148.66;5138066;28;20120;-62
2023/08/20 09:26:20;;;;;;;3.15;2.85;;;;;;;36.77;74.04;99143.09;5138172;28;20401;-62
2023/08/20 09:28:47;;;;;;;3.28;3.00;;;;;;;37.19;70.51;99152.69;5137954;28;20433;-63
2023/08/20 09:31:14;;;;;;;4.38;3.17;;;;;;;37.15;74.09;99155.09;5138246;28;20115;-63
2023/08/20 09:33:49;;;;;;;7.35;3.17;;;;;;;36.88;72.02;99154.28;5137695;28;20130;-60
2023/08/20 09:36:16;;;;;;;5.15;3.10;;;;;;;36.93;73.68;99147.72;5137994;28;20417;-64
2023/08/20 09:38:41;;;;;;;4.38;3.08;;;;;;;36.92;76.37;99153.97;5137848;27;20142;-59
2023/08/20 09:41:08;;;;;;;5.25;3.20;;;;;;;35.95;79.75;99151.13;5138141;28;20043;-57
2023/08/20 09:43:38;;;;;;;12.20;3.38;;;;;;;34.64;86.57;99146.72;5137778;28;20080;-64
2023/08/20 09:46:05;;;;;;;3.50;3.20;;;;;;;34.04;95.24;99138.91;5137732;28;20059;-64
2023/08/20 09:48:34;;;;;;;4.85;3.30;;;;;;;33.39;100.00;99126.06;5138021;28;20157;-56
2023/08/20 09:51:04;;;;;;;3.45;3.15;;;;;;;33.12;98.33;99141.13;5137447;28;20058;-58
2023/08/20 09:53:37;;;;;;;3.78;3.22;;;;;;;32.92;100.00;99116.63;5137494;27;20142;-55
2023/08/20 09:56:08;;;;;;;;;;;;;;;32.96;100.00;99128.53;5137695;28;20503;-61
2023/08/20 09:58:35;;;;;;;7.38;3.70;;;;;;;33.35;100.00;99125.53;5137766;28;20208;-64
2023/08/20 10:01:02;;;;;;;3.50;3.20;;;;;;;33.80;100.00;99124.56;5137242;28;20336;-59
2023/08/20 10:03:28;;;;;;;4.15;3.33;;;;;;;33.84;99.43;99125.06;5137765;28;20043;-61
2023/08/20 10:05:56;;;;;;;4.30;3.53;;;;;;;33.72;100.00;99124.34;5137291;28;20131;-57
2023/08/20 10:08:23;;;;;;;7.40;3.60;;;;;;;33.49;100.00;99118.81;5137396;27;20047;-57
2023/08/20 10:10:49;;;;;;;5.53;3.63;;;;;;;32.91;100.00;99127.22;5137452;28;20074;-61
2023/08/20 10:13:16;;;;;;;6.78;3.42;;;;;;;33.21;100.00;99126.66;5137146;28;20484;-64
2023/08/20 10:15:43;;;;;;;3.95;3.22;;;;;;;32.92;100.00;99119.47;5137445;28;20071;-57
2023/08/20 10:18:10;;;;;;;4.93;3.40;;;;;;;33.18;100.00;99125.63;5137019;28;20410;-61
2023/08/20 10:20:39;;;;;;;4.57;3.20;;;;;;;33.27;100.00;99113.19;5137234;28;20047;-58
2023/08/20 10:23:05;;;;;;;5.85;3.30;;;;;;;33.33;100.00;99110.34;5137016;28;20134;-61
2023/08/20 10:25:31;;;;;;;4.47;3.60;;;;;;;33.14;100.00;99104.47;5137405;28;20057;-59
2023/08/20 10:28:13;;;;;;;4.47;3.20;;;;;;;33.23;100.00;99098.50;5136974;28;20055;-59
2023/08/20 10:30:59;;;;;;;3.47;3.03;;;;;;;33.03;100.00;99083.34;5137284;28;20423;-63
2023/08/20 10:33:26;;;;;;;6.72;3.67;;;;;;;33.01;100.00;99088.00;5136775;28;20051;-55
2023/08/20 10:35:53;;;;;;;7.88;3.72;;;;;;;33.24;100.00;99075.22;5137036;28;20083;-59
2023/08/20 10:38:19;;;;;;;5.45;3.90;;;;;;;32.87;100.00;99086.97;5137131;27;20047;-56
2023/08/20 10:40:52;;;;;;;5.28;3.50;;;;;;;33.17;100.00;99095.69;5136893;28;20441;-61
2023/08/20 10:43:27;;;;;;;4.68;3.00;;;;;;;33.06;100.00;99075.06;5137396;28;20130;-59
2023/08/20 10:46:06;;;;;;;6.70;3.08;;;;;;;33.13;100.00;99080.22;5136692;28;20103;-58
2023/08/20 10:48:34;;;;;;;5.40;3.25;;;;;;;32.73;100.00;99073.88;5136525;28;20043;-62
2023/08/20 10:51:09;;;;;;;3.85;3.13;;;;;;;33.27;100.00;99087.63;5136663;28;20073;-61
2023/08/20 10:53:36;;;;;;;4.68;2.90;;;;;;;33.73;97.03;99094.63;5136824;28;20256;-63
2023/08/20 10:56:12;;;;;;;6.38;3.42;;;;;;;33.77;96.66;99095.13;5136788;28;20047;-56
2023/08/20 10:58:41;;;;;;;5.72;3.30;;;;;;;33.55;100.00;99093.19;5136574;28;20335;-62
2023/08/20 11:01:21;;;;;;;6.55;2.97;;;;;;;33.03;98.96;99085.41;5136672;28;20051;-62
2023/08/20 11:03:49;;;;;;;5.57;2.95;;;;;;;32.83;100.00;99085.72;5136498;28;20051;-60
2023/08/20 11:06:16;;;;;;;10.00;3.22;;;;;;;32.73;100.00;99082.38;5139181;27;20138;-63
2023/08/20 11:08:43;;;;;;;4.40;3.13;;;;;;;32.40;100.00;99086.78;5139924;27;20051;-57
2023/08/20 11:11:09;;;;;;;6.03;3.08;;;;;;;32.09;100.00;99079.34;5140287;28;20061;-58
2023/08/20 11:13:36;;;;;;;4.18;2.50;;;;;;;32.17;100.00;99083.19;5139909;28;20054;-63
2023/08/20 11:16:03;;;;;;;4.93;3.10;;;;;;;32.30;100.00;99063.59;5140049;28;20065;-58
2023/08/20 11:18:30;;;;;;;4.72;3.25;;;;;;;32.01;100.00;99058.44;5140129;28;20043;-57